Time;durP1;ratioP1;P1;durP2;ratioP2;P2;SDS_P1;SDS_P2;PMS_P1;PMS_P2;Temp;Humidity;BMP_temperature;BMP_pressure;BME280_temperature;BME280_humidity;BME280_pressure;Samples;Min_cycle;Max_cycle;Signal;HPM_P1;HPM_P2
2022/11/03 00:02:39;;;;;;;4.72;1.73;;;;;;;;;;4990826;28;20084;-65
2022/11/03 00:08:02;;;;;;;5.97;2.28;;;;;;;;;;4990831;28;20081;-65
2022/11/03 00:10:33;;;;;;;5.55;1.77;;;;;;;;;;4990677;28;20046;-65
2022/11/03 00:13:04;;;;;;;3.50;1.30;;;;;;;;;;4951732;28;20047;-67
2022/11/03 00:15:35;;;;;;;3.65;1.50;;;;;;;;;;4970791;28;20061;-65
2022/11/03 00:18:07;;;;;;;6.10;1.80;;;;;;;;;;4970915;28;20435;-65
2022/11/03 00:20:38;;;;;;;4.35;1.70;;;;;;;;;;4970901;28;20058;-66
2022/11/03 00:23:09;;;;;;;8.00;1.63;;;;;;;;;;4954773;28;20063;-65
2022/11/03 00:25:40;;;;;;;4.20;1.65;;;;;;;;;;4951405;29;20066;-66
2022/11/03 00:28:11;;;;;;;8.65;2.25;;;;;;;;;;4913486;29;20064;-65
2022/11/03 00:30:41;;;;;;;7.15;2.75;;;;;;;;;;4913206;29;20048;-67
2022/11/03 00:33:12;;;;;;;8.48;2.35;;;;;;;;;;4927958;29;20051;-66
2022/11/03 00:35:44;;;;;;;10.70;2.58;;;;;;;;;;4917089;29;20051;-65
2022/11/03 00:38:14;;;;;;;4.55;1.83;;;;;;;;;;4932437;29;20071;-65
2022/11/03 00:40:45;;;;;;;6.63;1.75;;;;;;;;;;4932243;29;20504;-65
2022/11/03 00:43:16;;;;;;;9.52;2.28;;;;;;;;;;4885198;29;20060;-67
2022/11/03 00:45:47;;;;;;;4.30;1.52;;;;;;;;;;4932151;29;20066;-66
2022/11/03 00:48:30;;;;;;;6.82;1.75;;;;;;;;;;4932240;29;20075;-65
2022/11/03 00:51:05;;;;;;;4.70;1.63;;;;;;;;;;4877664;29;20519;-66
2022/11/03 00:53:47;;;;;;;6.00;1.60;;;;;;;;;;4915409;29;20066;-65
2022/11/03 00:56:27;;;;;;;5.32;2.20;;;;;;;;;;4918036;29;20063;-66
2022/11/03 00:58:59;;;;;;;6.60;1.77;;;;;;;;;;4931872;29;20653;-66
2022/11/03 01:01:36;;;;;;;6.90;2.00;;;;;;;;;;4916102;29;20056;-65
2022/11/03 01:07:07;;;;;;;3.97;1.45;;;;;;;;;;4934837;29;20463;-65
2022/11/03 01:09:39;;;;;;;6.55;2.00;;;;;;;;;;4919429;29;20058;-66
2022/11/03 01:12:15;;;;;;;7.38;1.77;;;;;;;;;;4951320;29;20059;-65
2022/11/03 01:14:49;;;;;;;5.75;2.05;;;;;;;;;;4951228;29;20063;-66
2022/11/03 01:17:28;;;;;;;7.22;2.08;;;;;;;;;;4954054;28;20530;-65
2022/11/03 01:19:59;;;;;;;7.03;1.90;;;;;;;;;;4970335;28;20082;-65
2022/11/03 01:22:31;;;;;;;5.85;1.40;;;;;;;;;;4970183;28;20059;-65
2022/11/03 01:25:03;;;;;;;5.35;1.80;;;;;;;;;;4970604;28;20059;-65
2022/11/03 01:27:35;;;;;;;3.55;1.50;;;;;;;;;;4972140;28;20154;-65
2022/11/03 01:30:07;;;;;;;7.72;2.00;;;;;;;;;;4993489;28;20159;-66
2022/11/03 01:32:38;;;;;;;3.83;1.65;;;;;;;;;;4969890;28;20070;-66
2022/11/03 01:35:08;;;;;;;4.70;1.90;;;;;;;;;;4970129;28;20066;-66
2022/11/03 01:37:39;;;;;;;11.65;2.28;;;;;;;;;;4970121;28;20058;-66
2022/11/03 01:40:10;;;;;;;5.15;1.83;;;;;;;;;;4970120;28;20050;-65
2022/11/03 01:42:40;;;;;;;6.55;1.92;;;;;;;;;;4969995;28;20050;-66
2022/11/03 01:45:11;;;;;;;10.32;2.45;;;;;;;;;;4950526;29;20051;-66
2022/11/03 01:47:45;;;;;;;7.22;2.13;;;;;;;;;;4950642;29;20094;-65
2022/11/03 01:50:18;;;;;;;7.20;1.98;;;;;;;;;;4997782;28;20045;-65
2022/11/03 01:52:56;;;;;;;5.93;1.85;;;;;;;;;;5009178;28;20114;-66
2022/11/03 01:55:38;;;;;;;5.78;1.63;;;;;;;;;;5009034;28;20053;-65
2022/11/03 01:58:27;;;;;;;6.80;1.52;;;;;;;;;;5008897;28;20058;-66
2022/11/03 02:00:59;;;;;;;7.93;1.60;;;;;;;;;;5009128;28;20046;-66
2022/11/03 02:03:38;;;;;;;4.40;1.95;;;;;;;;;;5009505;28;20405;-67
2022/11/03 02:06:10;;;;;;;8.10;1.85;;;;;;;;;;5012546;28;20061;-66
2022/11/03 02:09:13;;;;;;;5.25;1.83;;;;;;;;;;4953942;29;20396;-65
2022/11/03 02:14:34;;;;;;;9.38;2.55;;;;;;;;;;4935042;29;20538;-66
2022/11/03 02:17:11;;;;;;;5.57;2.08;;;;;;;;;;4935189;29;20393;-65
2022/11/03 02:19:57;;;;;;;6.72;2.28;;;;;;;;;;4918728;29;20407;-65
2022/11/03 02:22:39;;;;;;;5.28;2.25;;;;;;;;;;4948395;28;20058;-66
2022/11/03 02:25:50;;;;;;;6.32;1.85;;;;;;;;;;4973254;28;20490;-66
2022/11/03 02:28:25;;;;;;;8.18;2.20;;;;;;;;;;4953942;29;20059;-67
2022/11/03 02:31:14;;;;;;;6.43;2.00;;;;;;;;;;4953854;29;20070;-66
2022/11/03 02:33:44;;;;;;;7.15;2.10;;;;;;;;;;4958518;28;20062;-66
2022/11/03 02:36:41;;;;;;;6.28;2.10;;;;;;;;;;4973417;28;20078;-66
2022/11/03 02:39:22;;;;;;;8.43;2.45;;;;;;;;;;4972961;28;20054;-66
2022/11/03 02:41:55;;;;;;;5.45;1.80;;;;;;;;;;4988535;28;20065;-67
2022/11/03 02:44:27;;;;;;;7.10;2.40;;;;;;;;;;4992361;28;20058;-67
2022/11/03 02:47:02;;;;;;;7.93;1.88;;;;;;;;;;5016242;28;20062;-66
2022/11/03 02:49:38;;;;;;;8.30;1.92;;;;;;;;;;4995410;28;20053;-67
2022/11/03 02:52:42;;;;;;;7.20;2.25;;;;;;;;;;5011892;28;20054;-67
2022/11/03 02:55:30;;;;;;;5.63;2.10;;;;;;;;;;5011775;28;20054;-67
2022/11/03 02:58:05;;;;;;;4.15;1.80;;;;;;;;;;4931616;28;20481;-66
2022/11/03 03:00:44;;;;;;;5.78;1.73;;;;;;;;;;5011598;28;20042;-67
2022/11/03 03:03:33;;;;;;;5.55;1.85;;;;;;;;;;5024955;28;20052;-68
2022/11/03 03:06:22;;;;;;;5.88;2.30;;;;;;;;;;5063680;28;20048;-67
2022/11/03 03:08:58;;;;;;;6.35;2.08;;;;;;;;;;5093709;28;20043;-67
2022/11/03 03:11:38;;;;;;;7.82;2.05;;;;;;;;;;5093960;28;20047;-67
2022/11/03 03:14:23;;;;;;;8.02;2.22;;;;;;;;;;5093553;28;20036;-67
2022/11/03 03:17:04;;;;;;;8.02;2.67;;;;;;;;;;5092913;28;20074;-67
2022/11/03 03:19:58;;;;;;;6.22;2.30;;;;;;;;;;5102086;28;20062;-67
2022/11/03 03:22:56;;;;;;;5.60;2.58;;;;;;;;;;5037347;28;20048;-67
2022/11/03 03:25:31;;;;;;;8.40;1.90;;;;;;;;;;5020936;28;20045;-67
2022/11/03 03:28:14;;;;;;;6.38;2.15;;;;;;;;;;5070779;28;20048;-67
2022/11/03 03:30:47;;;;;;;5.32;2.05;;;;;;;;;;5070741;28;20068;-67
2022/11/03 03:33:18;;;;;;;4.88;1.83;;;;;;;;;;5070899;28;20057;-67
2022/11/03 03:35:50;;;;;;;10.38;2.28;;;;;;;;;;5053960;28;20048;-67
2022/11/03 03:38:29;;;;;;;6.22;1.98;;;;;;;;;;5054538;28;20542;-67
2022/11/03 03:41:01;;;;;;;4.82;1.95;;;;;;;;;;5070854;28;20548;-67
2022/11/03 03:43:37;;;;;;;6.88;2.03;;;;;;;;;;5037153;28;20408;-67
2022/11/03 03:46:11;;;;;;;4.75;2.05;;;;;;;;;;5070516;28;20044;-67
2022/11/03 03:48:41;;;;;;;7.55;2.30;;;;;;;;;;5070357;28;20053;-67
2022/11/03 03:51:15;;;;;;;6.97;2.65;;;;;;;;;;5070353;28;20045;-67
2022/11/03 03:53:54;;;;;;;9.02;2.70;;;;;;;;;;5053348;28;20048;-67
2022/11/03 03:56:33;;;;;;;5.78;2.15;;;;;;;;;;5070484;28;20531;-67
2022/11/03 03:59:04;;;;;;;7.25;2.78;;;;;;;;;;5073320;28;20044;-67
2022/11/03 04:01:34;;;;;;;6.70;2.83;;;;;;;;;;5060854;28;20503;-67
2022/11/03 04:04:05;;;;;;;8.30;2.60;;;;;;;;;;5060691;28;20745;-67
2022/11/03 04:06:35;;;;;;;6.25;2.60;;;;;;;;;;5060661;28;20052;-67
2022/11/03 04:09:05;;;;;;;6.63;2.65;;;;;;;;;;5112881;28;20517;-67
2022/11/03 04:23:01;;;;;;;12.38;2.60;;;;;;;;;;5089912;28;20052;-67
2022/11/03 04:25:30;;;;;;;6.55;2.88;;;;;;;;;;5089901;28;20059;-67
2022/11/03 04:28:01;;;;;;;7.43;2.40;;;;;;;;;;5089766;28;20446;-67
2022/11/03 04:30:32;;;;;;;7.47;2.83;;;;;;;;;;5039886;28;20052;-67
2022/11/03 04:33:04;;;;;;;7.60;2.60;;;;;;;;;;5089916;28;20099;-67
2022/11/03 04:35:34;;;;;;;5.93;2.47;;;;;;;;;;5089926;28;20052;-67
2022/11/03 04:38:21;;;;;;;6.55;2.58;;;;;;;;;;5089827;28;20467;-67
2022/11/03 04:40:56;;;;;;;8.23;2.78;;;;;;;;;;5089630;28;20052;-67
2022/11/03 04:43:33;;;;;;;8.10;2.88;;;;;;;;;;5089910;28;20055;-67
2022/11/03 04:46:05;;;;;;;7.32;2.53;;;;;;;;;;5089574;28;20052;-67
2022/11/03 04:48:35;;;;;;;6.60;2.60;;;;;;;;;;5089799;28;20044;-67
2022/11/03 04:51:17;;;;;;;5.65;2.67;;;;;;;;;;5089417;28;20502;-67
2022/11/03 04:53:58;;;;;;;7.60;2.33;;;;;;;;;;5089713;28;20052;-67
2022/11/03 04:56:29;;;;;;;6.90;2.42;;;;;;;;;;5056018;28;20060;-67
2022/11/03 04:58:59;;;;;;;6.60;2.55;;;;;;;;;;5093486;28;20530;-67
2022/11/03 05:01:29;;;;;;;5.10;2.42;;;;;;;;;;5111954;28;20043;-67
2022/11/03 05:03:59;;;;;;;9.15;2.72;;;;;;;;;;5112395;28;20048;-67
2022/11/03 05:06:30;;;;;;;6.53;2.17;;;;;;;;;;5112036;28;20039;-67
2022/11/03 05:09:04;;;;;;;6.07;2.15;;;;;;;;;;5112203;28;20043;-67
2022/11/03 05:11:38;;;;;;;5.45;2.40;;;;;;;;;;5112191;28;20398;-67
2022/11/03 05:14:14;;;;;;;5.13;2.25;;;;;;;;;;5112007;28;20039;-67
2022/11/03 05:16:45;;;;;;;4.95;2.20;;;;;;;;;;5059739;28;20522;-67
2022/11/03 05:19:28;;;;;;;4.93;2.13;;;;;;;;;;5112144;28;20056;-67
2022/11/03 05:22:01;;;;;;;5.88;2.33;;;;;;;;;;5111850;28;20035;-67
2022/11/03 05:24:35;;;;;;;7.45;2.03;;;;;;;;;;5111908;28;20051;-67
2022/11/03 05:27:15;;;;;;;7.05;2.10;;;;;;;;;;5076294;28;20055;-67
2022/11/03 05:29:46;;;;;;;5.90;2.00;;;;;;;;;;5111975;28;20376;-67
2022/11/03 05:32:30;;;;;;;5.05;2.17;;;;;;;;;;5092928;28;20056;-67
2022/11/03 05:35:01;;;;;;;5.25;2.00;;;;;;;;;;5076115;28;20056;-67
2022/11/03 05:37:34;;;;;;;5.25;1.75;;;;;;;;;;5111776;28;20407;-67
2022/11/03 05:40:24;;;;;;;5.10;2.13;;;;;;;;;;5072307;28;20060;-67
2022/11/03 05:43:00;;;;;;;5.07;2.10;;;;;;;;;;5072916;28;20049;-67
2022/11/03 05:45:34;;;;;;;5.13;2.10;;;;;;;;;;5072590;28;20060;-67
2022/11/03 05:48:34;;;;;;;4.57;1.95;;;;;;;;;;5072780;28;20045;-67
2022/11/03 05:51:24;;;;;;;7.18;2.17;;;;;;;;;;5052458;28;20053;-67
2022/11/03 05:53:59;;;;;;;5.68;2.03;;;;;;;;;;5052506;28;20045;-67
2022/11/03 05:56:32;;;;;;;8.07;2.50;;;;;;;;;;5052735;28;20052;-67
2022/11/03 05:59:04;;;;;;;5.57;1.90;;;;;;;;;;5052387;28;20049;-67
2022/11/03 06:01:38;;;;;;;4.65;1.77;;;;;;;;;;5019510;28;20049;-67
2022/11/03 06:04:18;;;;;;;5.28;1.60;;;;;;;;;;5012558;28;20056;-67
2022/11/03 06:07:01;;;;;;;5.22;1.75;;;;;;;;;;5012646;28;20529;-67
2022/11/03 06:09:33;;;;;;;3.88;1.92;;;;;;;;;;5012591;28;20060;-67
2022/11/03 06:12:06;;;;;;;7.43;2.13;;;;;;;;;;4979984;28;20054;-67
2022/11/03 06:14:36;;;;;;;4.38;1.73;;;;;;;;;;4992769;28;20095;-67
2022/11/03 06:17:16;;;;;;;4.97;1.85;;;;;;;;;;5003474;28;20061;-67
2022/11/03 06:19:50;;;;;;;5.88;1.80;;;;;;;;;;5016223;28;20053;-67
2022/11/03 06:22:23;;;;;;;7.28;1.90;;;;;;;;;;5015702;28;20049;-67
2022/11/03 06:25:11;;;;;;;6.07;2.38;;;;;;;;;;5015557;28;20053;-67
2022/11/03 06:27:42;;;;;;;4.88;1.80;;;;;;;;;;5034137;28;20085;-67
2022/11/03 06:30:30;;;;;;;5.47;1.95;;;;;;;;;;5051959;28;20622;-67
2022/11/03 06:33:09;;;;;;;6.03;2.15;;;;;;;;;;4976006;28;20054;-67
2022/11/03 06:35:40;;;;;;;4.85;1.98;;;;;;;;;;4992637;28;20062;-66
2022/11/03 06:38:31;;;;;;;5.75;2.30;;;;;;;;;;4992510;28;20062;-67
2022/11/03 06:41:01;;;;;;;5.68;2.03;;;;;;;;;;4996057;28;20501;-67
2022/11/03 06:43:39;;;;;;;4.40;1.95;;;;;;;;;;5011891;28;20057;-67
2022/11/03 06:46:19;;;;;;;4.50;1.70;;;;;;;;;;5011878;28;20484;-67
2022/11/03 06:48:49;;;;;;;;;;;;;;;;;;5012246;28;20042;-67
2022/11/03 06:51:23;;;;;;;6.40;2.38;;;;;;;;;;5014360;28;19921;-66
2022/11/03 06:53:57;;;;;;;8.35;2.10;;;;;;;;;;4998625;28;20433;-67
2022/11/03 06:56:35;;;;;;;4.97;1.80;;;;;;;;;;5031604;28;20154;-67
2022/11/03 06:59:10;;;;;;;8.63;2.08;;;;;;;;;;4985213;28;20184;-67
2022/11/03 07:01:41;;;;;;;6.05;1.75;;;;;;;;;;5051368;28;20378;-67
2022/11/03 07:04:28;;;;;;;6.22;1.75;;;;;;;;;;5014418;28;20069;-67
2022/11/03 07:07:02;;;;;;;5.10;2.33;;;;;;;;;;5031288;28;20050;-67
2022/11/03 07:09:32;;;;;;;5.60;2.05;;;;;;;;;;5034558;28;20057;-67
2022/11/03 07:12:02;;;;;;;4.93;2.00;;;;;;;;;;5057918;28;20052;-67
2022/11/03 07:14:33;;;;;;;5.25;1.88;;;;;;;;;;5091353;28;20071;-67
2022/11/03 07:17:11;;;;;;;7.65;2.15;;;;;;;;;;5074867;28;20063;-67
2022/11/03 07:19:45;;;;;;;6.75;2.17;;;;;;;;;;5091056;28;20055;-67
2022/11/03 07:22:19;;;;;;;6.38;2.30;;;;;;;;;;5050864;28;20049;-66
2022/11/03 07:24:58;;;;;;;3.67;1.65;;;;;;;;;;5051025;28;20064;-66
2022/11/03 07:27:30;;;;;;;4.75;1.95;;;;;;;;;;5050870;28;20057;-67
2022/11/03 07:30:22;;;;;;;6.68;2.00;;;;;;;;;;5050903;28;20083;-67
2022/11/03 07:32:56;;;;;;;7.20;2.10;;;;;;;;;;5050729;28;20045;-66
2022/11/03 07:35:40;;;;;;;5.22;1.83;;;;;;;;;;4997838;28;20062;-67
2022/11/03 07:38:32;;;;;;;6.45;1.83;;;;;;;;;;5010835;28;20069;-67
2022/11/03 07:41:02;;;;;;;4.70;1.90;;;;;;;;;;5010982;28;20057;-67
2022/11/03 07:43:37;;;;;;;5.97;2.65;;;;;;;;;;5011018;28;20062;-67
2022/11/03 07:46:15;;;;;;;9.07;1.80;;;;;;;;;;4974977;28;20054;-67
2022/11/03 07:48:47;;;;;;;4.90;2.20;;;;;;;;;;4991331;28;20193;-67
2022/11/03 07:51:41;;;;;;;5.45;1.88;;;;;;;;;;4991028;28;20059;-67
2022/11/03 07:54:33;;;;;;;6.35;2.10;;;;;;;;;;4958816;28;20054;-67
2022/11/03 07:57:06;;;;;;;4.03;1.90;;;;;;;;;;4975746;28;20065;-67
2022/11/03 07:59:43;;;;;;;5.55;2.20;;;;;;;;;;5006071;28;20060;-67
2022/11/03 08:02:25;;;;;;;6.47;2.00;;;;;;;;;;5029928;28;20077;-67
2022/11/03 08:04:55;;;;;;;4.97;1.80;;;;;;;;;;4997415;28;20053;-67
2022/11/03 08:07:26;;;;;;;6.43;3.03;;;;;;;;;;5030206;28;20444;-67
2022/11/03 08:09:57;;;;;;;6.72;2.47;;;;;;;;;;5029937;28;20064;-67
2022/11/03 08:12:28;;;;;;;6.13;2.42;;;;;;;;;;5035485;28;20060;-67
2022/11/03 08:14:58;;;;;;;8.20;2.25;;;;;;;;;;5050258;28;20053;-67
2022/11/03 08:17:28;;;;;;;6.82;2.13;;;;;;;;;;5020210;28;20060;-67
2022/11/03 08:19:58;;;;;;;5.05;1.98;;;;;;;;;;5069751;28;20451;-67
2022/11/03 08:22:28;;;;;;;4.38;2.22;;;;;;;;;;5069914;28;20040;-67
2022/11/03 08:24:59;;;;;;;5.93;2.25;;;;;;;;;;5092346;28;20051;-67
2022/11/03 08:27:30;;;;;;;9.75;2.35;;;;;;;;;;5089703;28;20051;-67
2022/11/03 08:30:00;;;;;;;5.45;1.88;;;;;;;;;;5089812;28;20052;-67
2022/11/03 08:32:30;;;;;;;4.93;2.05;;;;;;;;;;5032679;28;20405;-67
2022/11/03 08:34:59;;;;;;;6.13;2.08;;;;;;;;;;5049401;28;20405;-67
2022/11/03 08:37:30;;;;;;;3.58;1.88;;;;;;;;;;5049628;28;20564;-67
2022/11/03 08:40:00;;;;;;;7.07;2.10;;;;;;;;;;5049471;28;20531;-67
2022/11/03 08:42:30;;;;;;;4.90;1.90;;;;;;;;;;5016500;28;20052;-67
2022/11/03 08:45:00;;;;;;;4.05;1.70;;;;;;;;;;5049466;28;20052;-67
2022/11/03 08:47:30;;;;;;;4.93;1.98;;;;;;;;;;5016397;28;20049;-67
2022/11/03 08:50:00;;;;;;;4.70;2.15;;;;;;;;;;5049390;28;20057;-67
2022/11/03 08:52:30;;;;;;;8.15;2.63;;;;;;;;;;5049394;28;20060;-67
2022/11/03 08:55:00;;;;;;;4.97;2.80;;;;;;;;;;5049371;28;20057;-67
2022/11/03 08:57:29;;;;;;;7.18;2.20;;;;;;;;;;5049328;28;20436;-67
2022/11/03 08:59:59;;;;;;;9.50;3.28;;;;;;;;;;5049336;28;20048;-67
2022/11/03 09:02:29;;;;;;;6.32;2.55;;;;;;;;;;5049294;28;20056;-67
2022/11/03 09:04:59;;;;;;;6.13;2.22;;;;;;;;;;5049317;28;20053;-67
2022/11/03 09:07:29;;;;;;;6.10;2.15;;;;;;;;;;5049225;28;20036;-67
2022/11/03 09:10:20;;;;;;;8.50;2.75;;;;;;;;;;5073948;28;20400;-67
2022/11/03 09:12:56;;;;;;;7.03;2.55;;;;;;;;;;5091852;28;20395;-67
2022/11/03 09:15:26;;;;;;;5.65;2.30;;;;;;;;;;5095874;28;20055;-67
2022/11/03 09:17:56;;;;;;;7.53;2.85;;;;;;;;;;5094862;28;20399;-66
2022/11/03 09:20:26;;;;;;;6.35;2.58;;;;;;;;;;5093289;28;20064;-66
2022/11/03 09:22:56;;;;;;;7.63;2.33;;;;;;;;;;5093265;28;20052;-66
2022/11/03 09:25:26;;;;;;;6.85;2.78;;;;;;;;;;5076432;28;20090;-67
2022/11/03 09:27:57;;;;;;;5.82;2.50;;;;;;;;;;5072937;28;20045;-66
2022/11/03 09:30:28;;;;;;;6.95;2.88;;;;;;;;;;5052721;28;20045;-66
2022/11/03 09:32:58;;;;;;;5.93;2.30;;;;;;;;;;5052976;28;20057;-66
2022/11/03 09:35:28;;;;;;;4.97;2.63;;;;;;;;;;5052868;28;20052;-66
2022/11/03 09:37:57;;;;;;;6.28;2.70;;;;;;;;;;5053030;28;20061;-66
2022/11/03 09:40:28;;;;;;;5.47;2.35;;;;;;;;;;5052838;28;20060;-66
2022/11/03 09:42:58;;;;;;;4.30;2.22;;;;;;;;;;5053042;28;20451;-66
2022/11/03 09:45:28;;;;;;;5.43;2.60;;;;;;;;;;5032544;28;20406;-66
2022/11/03 09:47:58;;;;;;;4.40;2.03;;;;;;;;;;4999840;28;20049;-66
2022/11/03 09:50:28;;;;;;;7.13;2.63;;;;;;;;;;5016304;28;20060;-66
2022/11/03 09:52:58;;;;;;;7.70;2.85;;;;;;;;;;4960373;28;20090;-65
2022/11/03 09:55:28;;;;;;;4.30;2.45;;;;;;;;;;4993173;28;20061;-65
2022/11/03 09:58:00;;;;;;;7.15;2.50;;;;;;;;;;4993106;28;20062;-65
2022/11/03 10:00:32;;;;;;;7.45;2.35;;;;;;;;;;4993315;28;20057;-65
2022/11/03 10:03:03;;;;;;;6.53;2.15;;;;;;;;;;4992840;28;20057;-65
2022/11/03 10:05:34;;;;;;;8.57;2.30;;;;;;;;;;5002816;28;20058;-65
2022/11/03 10:08:10;;;;;;;5.47;2.65;;;;;;;;;;5022373;28;20049;-65
2022/11/03 10:10:42;;;;;;;6.53;2.63;;;;;;;;;;5032477;28;20066;-65
2022/11/03 10:13:32;;;;;;;10.57;4.38;;;;;;;;;;5032450;28;20508;-65
2022/11/03 10:16:06;;;;;;;9.30;3.53;;;;;;;;;;5012233;28;20049;-66
2022/11/03 10:18:37;;;;;;;9.43;3.60;;;;;;;;;;5012312;28;20065;-65
2022/11/03 10:21:24;;;;;;;7.82;3.75;;;;;;;;;;5032056;28;20061;-65
2022/11/03 10:23:56;;;;;;;9.32;4.05;;;;;;;;;;5031667;28;20049;-64
2022/11/03 10:26:26;;;;;;;9.52;4.57;;;;;;;;;;5032221;28;20373;-65
2022/11/03 10:29:08;;;;;;;11.63;4.00;;;;;;;;;;5015374;28;20060;-65
2022/11/03 10:31:40;;;;;;;11.20;4.50;;;;;;;;;;5069081;28;20056;-64
2022/11/03 10:34:36;;;;;;;8.80;3.65;;;;;;;;;;5071870;28;20071;-65
2022/11/03 10:37:38;;;;;;;8.85;2.13;;;;;;;;;;5012095;28;20062;-65
2022/11/03 10:40:35;;;;;;;6.38;2.83;;;;;;;;;;4944758;29;20059;-65
2022/11/03 10:43:20;;;;;;;8.15;2.60;;;;;;;;;;4899733;29;20048;-64
2022/11/03 10:46:11;;;;;;;8.23;2.40;;;;;;;;;;4915420;29;20059;-64
2022/11/03 10:49:05;;;;;;;7.05;2.17;;;;;;;;;;4915321;29;20067;-65
2022/11/03 10:51:37;;;;;;;5.97;2.03;;;;;;;;;;4915310;29;20087;-65
2022/11/03 10:54:12;;;;;;;6.75;1.75;;;;;;;;;;4934536;29;20074;-64
2022/11/03 10:56:43;;;;;;;3.00;1.33;;;;;;;;;;4934309;29;20051;-64
2022/11/03 10:59:18;;;;;;;4.72;1.65;;;;;;;;;;4934366;29;20067;-65
2022/11/03 11:01:49;;;;;;;4.18;1.42;;;;;;;;;;4933998;29;20579;-64
2022/11/03 11:04:20;;;;;;;2.67;1.27;;;;;;;;;;4934112;29;20063;-65
2022/11/03 11:06:51;;;;;;;2.45;1.23;;;;;;;;;;4934146;29;20067;-64
2022/11/03 11:09:24;;;;;;;2.53;0.90;;;;;;;;;;4934128;29;20060;-65
2022/11/03 11:12:05;;;;;;;2.60;1.00;;;;;;;;;;4934133;29;20059;-64
2022/11/03 11:14:38;;;;;;;2.90;0.95;;;;;;;;;;4933987;29;20060;-64
2022/11/03 11:17:37;;;;;;;2.20;1.02;;;;;;;;;;4978815;28;20541;-64
2022/11/03 11:20:31;;;;;;;5.07;1.42;;;;;;;;;;5023675;28;20069;-64
2022/11/03 11:23:28;;;;;;;4.82;1.70;;;;;;;;;;5033058;28;20524;-65
2022/11/03 11:26:11;;;;;;;3.60;0.90;;;;;;;;;;5091470;28;20431;-65
2022/11/03 11:28:43;;;;;;;4.00;1.17;;;;;;;;;;5091016;28;20059;-66
2022/11/03 11:31:26;;;;;;;3.00;1.10;;;;;;;;;;5091733;28;20056;-65
2022/11/03 11:34:19;;;;;;;3.90;1.25;;;;;;;;;;5074243;28;20052;-65
2022/11/03 11:36:55;;;;;;;7.28;0.90;;;;;;;;;;5092424;28;20044;-66
2022/11/03 11:39:29;;;;;;;2.55;0.90;;;;;;;;;;5093116;28;20044;-64
2022/11/03 11:42:14;;;;;;;2.40;1.23;;;;;;;;;;5093124;28;20040;-65
2022/11/03 11:44:52;;;;;;;3.88;1.92;;;;;;;;;;5020635;28;20052;-64
2022/11/03 11:47:45;;;;;;;7.82;2.70;;;;;;;;;;5054075;28;20500;-65
2022/11/03 11:50:42;;;;;;;3.22;1.40;;;;;;;;;;5070367;28;20055;-65
2022/11/03 11:53:17;;;;;;;1.40;0.90;;;;;;;;;;4994084;28;20050;-65
2022/11/03 11:56:00;;;;;;;2.65;1.08;;;;;;;;;;4990685;28;20514;-67
2022/11/03 11:58:41;;;;;;;1.95;0.73;;;;;;;;;;4990989;28;20062;-65
2022/11/03 12:01:29;;;;;;;4.00;2.15;;;;;;;;;;4990824;28;20046;-65
2022/11/03 12:04:24;;;;;;;1.98;0.88;;;;;;;;;;4959044;28;20066;-65
2022/11/03 12:06:56;;;;;;;3.72;1.05;;;;;;;;;;4952063;28;20051;-65
2022/11/03 12:09:27;;;;;;;2.00;0.70;;;;;;;;;;4936616;29;20129;-65
2022/11/03 12:12:01;;;;;;;;;;;;;;;;;;4952553;29;20059;-65
2022/11/03 12:14:41;;;;;;;2.20;0.95;;;;;;;;;;4937604;29;19923;-65
2022/11/03 12:17:23;;;;;;;2.92;1.10;;;;;;;;;;4990603;28;20062;-65
2022/11/03 12:19:56;;;;;;;8.48;1.33;;;;;;;;;;4974412;28;20066;-64
2022/11/03 12:22:29;;;;;;;2.97;0.70;;;;;;;;;;4990682;28;20054;-65
2022/11/03 12:25:09;;;;;;;3.50;1.02;;;;;;;;;;4990510;28;20047;-66
2022/11/03 12:27:41;;;;;;;2.42;1.02;;;;;;;;;;4970902;28;20070;-65
2022/11/03 12:30:32;;;;;;;1.88;0.82;;;;;;;;;;4911167;29;20052;-66
2022/11/03 12:33:09;;;;;;;6.82;0.80;;;;;;;;;;4882189;29;20063;-66
2022/11/03 12:35:40;;;;;;;3.40;1.00;;;;;;;;;;4882129;29;20556;-64
2022/11/03 12:38:10;;;;;;;2.25;0.90;;;;;;;;;;4921671;29;20064;-66
2022/11/03 12:40:41;;;;;;;3.50;1.10;;;;;;;;;;4951558;29;20059;-64
2022/11/03 12:43:14;;;;;;;4.38;1.60;;;;;;;;;;4919845;29;20059;-65
2022/11/03 12:45:46;;;;;;;2.05;1.00;;;;;;;;;;4932740;29;20051;-65
2022/11/03 12:48:18;;;;;;;6.05;1.48;;;;;;;;;;4916588;29;20060;-65
2022/11/03 12:50:48;;;;;;;2.30;1.00;;;;;;;;;;4916796;29;20064;-65
2022/11/03 12:53:39;;;;;;;1.85;0.82;;;;;;;;;;4913178;29;20501;-65
2022/11/03 12:56:13;;;;;;;3.42;1.15;;;;;;;;;;4932213;29;20626;-65
2022/11/03 12:58:44;;;;;;;3.03;0.95;;;;;;;;;;4900614;29;20526;-65
2022/11/03 13:01:18;;;;;;;2.55;0.80;;;;;;;;;;4912824;29;20060;-65
2022/11/03 13:04:09;;;;;;;1.67;0.80;;;;;;;;;;4879877;29;20052;-65
2022/11/03 13:06:40;;;;;;;2.67;1.00;;;;;;;;;;4876277;29;20060;-66
2022/11/03 13:09:11;;;;;;;2.70;1.02;;;;;;;;;;4912382;29;20052;-64
2022/11/03 13:14:35;;;;;;;4.65;1.23;;;;;;;;;;4951243;28;20056;-65
2022/11/03 13:17:07;;;;;;;2.90;0.80;;;;;;;;;;4947698;28;20167;-66
2022/11/03 13:19:38;;;;;;;3.55;1.27;;;;;;;;;;4902248;28;20062;-65
2022/11/03 13:22:09;;;;;;;2.20;0.77;;;;;;;;;;4931805;29;20059;-65
2022/11/03 13:24:40;;;;;;;2.15;0.70;;;;;;;;;;4933895;28;20060;-65
2022/11/03 13:27:11;;;;;;;2.72;1.00;;;;;;;;;;4916472;29;20500;-65
2022/11/03 13:29:42;;;;;;;4.55;1.10;;;;;;;;;;4931819;29;20063;-64
2022/11/03 13:32:12;;;;;;;3.28;0.90;;;;;;;;;;4912944;29;20394;-65
2022/11/03 13:34:43;;;;;;;3.08;1.10;;;;;;;;;;4946878;29;20059;-65
2022/11/03 13:37:16;;;;;;;2.25;0.98;;;;;;;;;;4951235;29;20055;-65
2022/11/03 13:39:46;;;;;;;3.38;0.90;;;;;;;;;;4903423;29;20062;-66
2022/11/03 13:42:17;;;;;;;5.72;1.30;;;;;;;;;;4964331;28;20047;-64
2022/11/03 13:44:48;;;;;;;2.80;0.98;;;;;;;;;;4954016;28;20055;-64
2022/11/03 13:47:19;;;;;;;6.72;2.67;;;;;;;;;;4970334;28;20061;-64
2022/11/03 13:50:11;;;;;;;2.35;0.98;;;;;;;;;;4986348;28;20061;-65
2022/11/03 13:52:44;;;;;;;5.85;2.13;;;;;;;;;;4987415;28;20054;-65
2022/11/03 13:55:14;;;;;;;3.83;1.83;;;;;;;;;;4956964;28;20510;-66
2022/11/03 13:58:31;;;;;;;2.80;1.30;;;;;;;;;;4950870;28;20067;-64
2022/11/03 14:01:24;;;;;;;5.43;1.83;;;;;;;;;;5009354;28;20053;-66
2022/11/03 14:03:55;;;;;;;2.55;0.90;;;;;;;;;;4993382;28;20067;-64
2022/11/03 14:06:48;;;;;;;5.10;0.73;;;;;;;;;;5006216;28;20533;-65
2022/11/03 14:09:19;;;;;;;2.75;0.90;;;;;;;;;;4985793;28;20053;-65
2022/11/03 14:14:41;;;;;;;2.20;1.00;;;;;;;;;;4983627;28;20054;-65
2022/11/03 14:17:13;;;;;;;1.88;0.73;;;;;;;;;;4992669;28;20050;-65
2022/11/03 14:19:43;;;;;;;;;;;;;;;;;;4991187;28;20058;-64
2022/11/03 14:22:22;;;;;;;2.60;1.23;;;;;;;;;;4992902;28;19925;-65
2022/11/03 14:25:12;;;;;;;2.85;0.90;;;;;;;;;;4992832;28;20607;-64
2022/11/03 14:27:43;;;;;;;1.10;0.63;;;;;;;;;;4992713;28;20059;-64
2022/11/03 14:30:14;;;;;;;2.60;0.82;;;;;;;;;;4976080;28;20388;-65
2022/11/03 14:32:46;;;;;;;1.20;0.70;;;;;;;;;;4990102;28;20383;-64
2022/11/03 14:35:17;;;;;;;1.35;0.57;;;;;;;;;;4998026;28;20057;-65
2022/11/03 14:37:48;;;;;;;2.45;1.42;;;;;;;;;;5015691;28;20066;-64
2022/11/03 14:43:31;;;;;;;1.88;0.90;;;;;;;;;;4991931;28;20176;-64
2022/11/03 14:46:03;;;;;;;4.10;2.03;;;;;;;;;;4992411;28;20065;-64
2022/11/03 14:48:35;;;;;;;3.30;1.05;;;;;;;;;;4992292;28;20058;-65
2022/11/03 14:51:05;;;;;;;2.05;1.10;;;;;;;;;;4976362;28;20055;-65
2022/11/03 14:53:36;;;;;;;2.30;0.80;;;;;;;;;;5008277;28;20091;-65
2022/11/03 14:56:06;;;;;;;2.60;0.85;;;;;;;;;;4992192;28;20054;-64
2022/11/03 14:58:37;;;;;;;1.75;0.70;;;;;;;;;;4992299;28;20058;-64
2022/11/03 15:01:07;;;;;;;3.05;0.90;;;;;;;;;;4992076;28;20062;-64
2022/11/03 15:03:38;;;;;;;1.52;0.60;;;;;;;;;;4991965;28;20077;-64
2022/11/03 15:06:09;;;;;;;2.53;0.75;;;;;;;;;;4953279;28;20047;-64
2022/11/03 15:08:39;;;;;;;1.90;0.90;;;;;;;;;;4953349;29;20059;-64
2022/11/03 15:11:09;;;;;;;3.35;0.85;;;;;;;;;;4952035;28;20060;-64
2022/11/03 15:13:40;;;;;;;5.45;0.93;;;;;;;;;;4953280;28;20066;-64
2022/11/03 15:16:16;;;;;;;2.38;0.98;;;;;;;;;;4953257;28;20063;-66
2022/11/03 15:18:47;;;;;;;2.22;0.88;;;;;;;;;;4937525;29;20408;-64
2022/11/03 15:21:17;;;;;;;2.55;0.77;;;;;;;;;;4996060;28;20057;-64
2022/11/03 15:23:47;;;;;;;1.10;0.60;;;;;;;;;;4959284;28;20050;-63
2022/11/03 15:26:37;;;;;;;2.20;0.90;;;;;;;;;;4971820;28;20051;-65
2022/11/03 15:29:07;;;;;;;2.05;1.23;;;;;;;;;;4952580;28;20059;-66
2022/11/03 15:31:38;;;;;;;2.35;1.00;;;;;;;;;;4952875;28;20055;-65
2022/11/03 15:34:15;;;;;;;1.58;0.70;;;;;;;;;;4952880;28;20066;-65
2022/11/03 15:36:45;;;;;;;2.15;0.90;;;;;;;;;;4963443;28;20085;-64
2022/11/03 15:39:16;;;;;;;2.28;0.90;;;;;;;;;;4991606;28;20521;-65
2022/11/03 15:41:47;;;;;;;2.17;0.70;;;;;;;;;;4991446;28;20387;-64
2022/11/03 15:44:17;;;;;;;2.53;1.00;;;;;;;;;;4991285;28;20065;-65
2022/11/03 15:46:47;;;;;;;4.47;0.93;;;;;;;;;;4991388;28;20054;-64
2022/11/03 15:49:17;;;;;;;4.10;0.90;;;;;;;;;;4974531;28;20057;-64
2022/11/03 15:51:47;;;;;;;1.95;0.80;;;;;;;;;;4991141;28;20058;-65
2022/11/03 15:54:17;;;;;;;1.67;0.80;;;;;;;;;;5007243;28;20058;-65
2022/11/03 15:56:47;;;;;;;4.03;2.53;;;;;;;;;;4991414;28;20065;-64
2022/11/03 15:59:18;;;;;;;3.35;1.02;;;;;;;;;;5036245;28;20044;-64
2022/11/03 16:01:48;;;;;;;3.00;0.90;;;;;;;;;;4997013;28;20050;-65
2022/11/03 16:04:18;;;;;;;3.45;0.82;;;;;;;;;;4978333;28;20057;-65